Time;durP1;ratioP1;P1;durP2;ratioP2;P2;SDS_P1;SDS_P2;PMS_P1;PMS_P2;Temp;Humidity;BMP_temperature;BMP_pressure;BME280_temperature;BME280_humidity;BME280_pressure;Samples;Min_cycle;Max_cycle;Signal;HPM_P1;HPM_P2
2021/07/02 00:01:50;;;;;;;5.85;5.05;;;15.00;93.40;;;;;;5036616;28;20207;-79
2021/07/02 00:04:17;;;;;;;5.88;4.82;;;15.00;93.30;;;;;;5052627;28;20199;-79
2021/07/02 00:06:45;;;;;;;4.97;4.47;;;15.00;93.30;;;;;;5047904;28;20257;-78
2021/07/02 00:09:12;;;;;;;6.70;5.47;;;15.00;92.90;;;;;;5032903;28;20292;-78
2021/07/02 00:11:39;;;;;;;5.30;4.43;;;15.00;92.70;;;;;;5032937;28;20246;-78
2021/07/02 00:14:06;;;;;;;6.15;5.00;;;15.10;92.20;;;;;;5032905;28;20318;-78
2021/07/02 00:16:34;;;;;;;7.13;5.55;;;15.00;92.10;;;;;;5033789;28;20207;-78
2021/07/02 00:19:01;;;;;;;6.93;4.82;;;15.00;92.20;;;;;;5036704;28;20230;-78
2021/07/02 00:21:28;;;;;;;5.80;5.10;;;15.00;92.50;;;;;;5045228;28;20207;-79
2021/07/02 00:23:57;;;;;;;7.30;4.88;;;15.00;93.00;;;;;;5036425;28;20227;-78
2021/07/02 00:26:23;;;;;;;7.85;5.82;;;14.80;93.30;;;;;;5036797;28;20210;-79
2021/07/02 00:28:50;;;;;;;6.60;4.90;;;14.70;94.20;;;;;;5036554;28;20317;-78
2021/07/02 00:31:17;;;;;;;6.88;4.85;;;14.60;95.10;;;;;;5036022;28;20249;-78
2021/07/02 00:33:44;;;;;;;7.50;5.35;;;14.50;95.70;;;;;;5035459;28;20219;-79
2021/07/02 00:36:11;;;;;;;9.27;5.63;;;14.40;96.70;;;;;;5036044;28;20232;-78
2021/07/02 00:38:38;;;;;;;6.88;5.65;;;14.40;96.90;;;;;;5035913;28;20718;-78
2021/07/02 00:41:06;;;;;;;9.20;6.05;;;14.30;97.70;;;;;;5037530;28;20242;-79
2021/07/02 00:43:33;;;;;;;6.93;5.60;;;14.30;98.10;;;;;;5037922;28;20223;-78
2021/07/02 00:46:00;;;;;;;9.38;5.32;;;14.30;98.50;;;;;;5036080;28;20211;-78
2021/07/02 00:48:27;;;;;;;6.18;5.53;;;14.20;98.80;;;;;;5035785;28;20235;-79
2021/07/02 00:50:54;;;;;;;6.72;5.32;;;14.20;99.30;;;;;;5035792;28;20738;-78
2021/07/02 00:53:22;;;;;;;9.70;5.45;;;14.10;99.90;;;;;;5035298;28;20310;-78
2021/07/02 00:55:49;;;;;;;9.20;5.25;;;14.10;99.90;;;;;;5036014;28;20573;-78
2021/07/02 00:58:19;;;;;;;7.82;5.60;;;14.10;99.90;;;;;;5035795;28;20318;-77
2021/07/02 01:00:47;;;;;;;8.05;5.70;;;14.20;99.90;;;;;;5035812;28;20779;-77
2021/07/02 01:03:14;;;;;;;8.07;5.70;;;14.30;99.90;;;;;;5036221;28;20761;-77
2021/07/02 01:05:43;;;;;;;7.25;5.70;;;14.30;99.90;;;;;;5036451;28;20203;-77
2021/07/02 01:08:11;;;;;;;9.13;6.07;;;14.30;99.90;;;;;;5064774;22;20235;-78
2021/07/02 01:10:38;;;;;;;7.10;5.65;;;14.40;99.90;;;;;;5050941;28;20207;-78
2021/07/02 01:13:06;;;;;;;9.85;6.18;;;14.40;99.90;;;;;;5050983;28;20633;-78
2021/07/02 01:15:34;;;;;;;7.25;5.53;;;14.30;99.90;;;;;;5048518;28;20207;-78
2021/07/02 01:18:05;;;;;;;7.25;5.72;;;14.40;99.90;;;;;;5050392;28;20250;-78
2021/07/02 01:20:32;;;;;;;7.10;5.32;;;14.40;99.90;;;;;;5049766;28;20226;-78
2021/07/02 01:23:01;;;;;;;6.80;5.70;;;14.40;99.90;;;;;;5044023;28;20253;-78
2021/07/02 01:25:31;;;;;;;7.85;5.35;;;14.40;99.90;;;;;;5049997;28;20272;-78
2021/07/02 01:27:59;;;;;;;7.68;5.97;;;14.40;99.70;;;;;;5047939;28;20234;-78
2021/07/02 01:30:26;;;;;;;8.45;6.00;;;14.40;99.40;;;;;;5046403;28;20211;-78
2021/07/02 01:32:54;;;;;;;9.02;6.00;;;14.40;99.10;;;;;;5048709;28;20301;-78
2021/07/02 01:35:21;;;;;;;8.35;5.60;;;14.40;99.00;;;;;;5049432;28;20233;-78
2021/07/02 01:37:48;;;;;;;7.70;5.75;;;14.40;98.80;;;;;;5044879;28;20223;-79
2021/07/02 01:40:16;;;;;;;10.05;6.32;;;14.40;98.70;;;;;;5049507;28;20218;-79
2021/07/02 01:42:43;;;;;;;8.07;5.88;;;14.40;98.50;;;;;;5046591;28;20269;-78
2021/07/02 01:45:11;;;;;;;8.82;5.15;;;14.40;98.50;;;;;;5044724;28;20203;-78
2021/07/02 01:47:38;;;;;;;5.55;5.00;;;14.40;98.40;;;;;;5038956;28;20738;-79
2021/07/02 01:50:07;;;;;;;9.15;6.25;;;14.40;98.10;;;;;;5050739;28;20231;-80
2021/07/02 01:52:34;;;;;;;8.60;5.45;;;14.50;97.70;;;;;;5054412;28;20211;-80
2021/07/02 01:55:01;;;;;;;7.35;5.32;;;14.40;97.30;;;;;;5048257;28;20262;-79
2021/07/02 01:57:29;;;;;;;6.60;5.40;;;14.40;97.70;;;;;;5038211;28;20231;-78
2021/07/02 01:59:57;;;;;;;7.55;6.07;;;14.40;97.80;;;;;;5042245;28;20261;-78
2021/07/02 02:02:24;;;;;;;9.30;6.53;;;14.30;97.50;;;;;;5038851;28;20234;-79
2021/07/02 02:04:52;;;;;;;8.00;6.05;;;14.30;97.70;;;;;;5038408;28;20241;-79
2021/07/02 02:07:19;;;;;;;6.70;5.43;;;14.30;97.70;;;;;;5037726;28;20231;-79
2021/07/02 02:09:46;;;;;;;8.20;5.55;;;14.30;97.90;;;;;;5036934;28;20257;-79
2021/07/02 02:12:13;;;;;;;8.65;6.00;;;14.20;98.30;;;;;;5036794;28;20306;-78
2021/07/02 02:14:41;;;;;;;7.18;5.32;;;14.20;98.40;;;;;;5038044;28;20259;-79
2021/07/02 02:17:08;;;;;;;7.80;5.70;;;14.20;98.20;;;;;;5035992;28;20247;-78
2021/07/02 02:19:35;;;;;;;6.70;6.10;;;14.10;98.40;;;;;;5040131;28;20242;-79
2021/07/02 02:22:02;;;;;;;6.82;5.57;;;14.10;98.50;;;;;;5049006;28;20207;-78
2021/07/02 02:24:29;;;;;;;7.38;5.68;;;14.00;98.70;;;;;;5054539;28;20238;-79
2021/07/02 02:26:56;;;;;;;8.25;6.07;;;14.00;98.80;;;;;;5050253;28;20203;-79
2021/07/02 02:29:24;;;;;;;7.78;6.20;;;14.10;98.80;;;;;;5049447;28;20207;-79
2021/07/02 02:31:53;;;;;;;8.77;6.45;;;14.00;98.40;;;;;;5049508;28;20222;-79
2021/07/02 02:34:20;;;;;;;7.18;5.03;;;14.00;98.60;;;;;;5052367;28;20249;-78
2021/07/02 02:36:47;;;;;;;6.25;5.63;;;14.00;98.50;;;;;;5049641;28;20242;-79
2021/07/02 02:39:14;;;;;;;7.35;5.72;;;14.00;98.80;;;;;;5045742;28;20262;-79
2021/07/02 02:41:41;;;;;;;8.40;6.22;;;14.00;98.90;;;;;;5037904;28;20203;-79
2021/07/02 02:44:08;;;;;;;9.77;7.05;;;13.90;98.60;;;;;;5038986;28;20234;-79
2021/07/02 02:46:35;;;;;;;7.18;6.03;;;14.00;99.00;;;;;;5045414;28;20267;-79
2021/07/02 02:49:04;;;;;;;7.85;6.13;;;14.00;98.90;;;;;;5049819;28;20214;-79
2021/07/02 02:51:30;;;;;;;9.13;6.50;;;14.00;98.80;;;;;;5049727;28;20234;-79
2021/07/02 02:53:57;;;;;;;12.43;6.82;;;14.10;99.00;;;;;;5050227;28;20230;-79
2021/07/02 02:56:24;;;;;;;9.43;5.93;;;14.10;98.40;;;;;;5045154;28;20212;-77
2021/07/02 02:58:51;;;;;;;7.93;6.60;;;14.10;98.00;;;;;;5043892;28;20257;-78
2021/07/02 03:01:18;;;;;;;7.65;5.25;;;14.20;97.10;;;;;;5043608;28;20238;-78
2021/07/02 03:03:45;;;;;;;9.02;6.80;;;14.20;96.60;;;;;;5043086;28;20253;-78
2021/07/02 03:06:14;;;;;;;6.88;6.18;;;14.20;96.60;;;;;;5045857;28;20211;-78
2021/07/02 03:08:41;;;;;;;11.50;6.63;;;14.20;96.60;;;;;;5042285;28;20267;-78
2021/07/02 03:11:08;;;;;;;8.15;6.60;;;14.20;96.30;;;;;;5043515;28;20203;-78
2021/07/02 03:13:35;;;;;;;7.75;6.15;;;14.20;96.10;;;;;;5037574;28;20268;-79
2021/07/02 03:16:02;;;;;;;7.22;6.28;;;14.30;96.10;;;;;;5037572;28;20215;-78
2021/07/02 03:18:29;;;;;;;6.55;5.55;;;14.30;95.50;;;;;;5036542;28;20227;-79
2021/07/02 03:20:56;;;;;;;11.27;6.22;;;14.30;95.30;;;;;;5037051;28;20661;-79
2021/07/02 03:23:24;;;;;;;8.77;7.00;;;14.30;95.40;;;;;;5038283;28;20231;-79
2021/07/02 03:25:51;;;;;;;8.15;6.40;;;14.40;95.20;;;;;;5037627;28;20290;-78
2021/07/02 03:28:18;;;;;;;9.00;7.18;;;14.50;95.00;;;;;;5049710;28;20239;-79
2021/07/02 03:30:45;;;;;;;7.47;5.70;;;14.40;94.40;;;;;;5051695;28;20226;-78
2021/07/02 03:33:12;;;;;;;8.60;6.85;;;14.40;93.90;;;;;;5049967;28;20234;-78
2021/07/02 03:35:39;;;;;;;10.02;6.50;;;14.40;93.80;;;;;;5050414;28;20223;-79
2021/07/02 03:38:06;;;;;;;11.00;5.78;;;14.40;93.60;;;;;;5040509;28;20307;-79
2021/07/02 03:40:34;;;;;;;10.90;6.43;;;14.40;93.70;;;;;;5044801;28;20195;-78
2021/07/02 03:43:01;;;;;;;7.22;6.13;;;14.30;93.30;;;;;;5052173;28;20215;-78
2021/07/02 03:45:28;;;;;;;8.05;5.55;;;14.30;93.70;;;;;;5044086;28;20647;-79
2021/07/02 03:47:55;;;;;;;10.10;6.30;;;14.30;93.80;;;;;;5036311;28;20230;-78
2021/07/02 03:50:23;;;;;;;7.35;5.90;;;14.30;93.90;;;;;;5037973;28;20278;-79
2021/07/02 03:52:50;;;;;;;10.07;6.55;;;14.30;94.00;;;;;;5036666;28;20290;-79
2021/07/02 03:55:18;;;;;;;7.18;6.20;;;14.30;93.70;;;;;;5037868;28;20296;-79
2021/07/02 03:57:46;;;;;;;7.00;6.20;;;14.30;93.10;;;;;;5035924;28;20269;-78
2021/07/02 04:00:14;;;;;;;8.20;5.70;;;14.30;93.40;;;;;;5036155;28;20207;-79
2021/07/02 04:02:41;;;;;;;8.02;6.13;;;14.20;93.30;;;;;;5037333;28;20211;-79
2021/07/02 04:05:09;;;;;;;7.95;6.20;;;14.20;93.80;;;;;;5036623;28;20530;-79
2021/07/02 04:07:36;;;;;;;8.38;5.95;;;14.30;93.80;;;;;;5037309;28;20327;-78
2021/07/02 04:10:04;;;;;;;8.82;6.22;;;14.30;93.50;;;;;;5037469;28;20582;-79
2021/07/02 04:12:31;;;;;;;11.43;5.85;;;14.40;93.10;;;;;;5038605;28;20686;-79
2021/07/02 04:14:59;;;;;;;7.40;6.43;;;14.40;93.10;;;;;;5044543;28;20258;-78
2021/07/02 04:17:26;;;;;;;8.10;5.70;;;14.40;92.80;;;;;;5047523;28;20227;-78
2021/07/02 04:19:53;;;;;;;7.78;6.65;;;14.40;92.90;;;;;;5043224;28;20483;-78
2021/07/02 04:22:20;;;;;;;15.23;6.55;;;14.40;93.10;;;;;;5048400;28;20231;-78
2021/07/02 04:24:47;;;;;;;7.22;6.22;;;14.30;92.60;;;;;;5047718;28;20285;-78
2021/07/02 04:27:15;;;;;;;7.30;5.90;;;14.40;92.70;;;;;;5048543;28;20615;-78
2021/07/02 04:29:42;;;;;;;8.98;5.30;;;14.50;92.10;;;;;;5045428;28;20234;-78
2021/07/02 04:32:11;;;;;;;7.40;5.07;;;14.60;91.30;;;;;;5043291;28;20211;-79
2021/07/02 04:34:38;;;;;;;7.63;5.40;;;14.80;90.50;;;;;;5047044;28;20223;-80
2021/07/02 04:37:05;;;;;;;6.60;5.80;;;15.00;89.20;;;;;;5040276;28;20227;-80
2021/07/02 04:39:32;;;;;;;7.55;5.40;;;14.90;87.10;;;;;;5049649;28;20237;-79
2021/07/02 04:41:59;;;;;;;6.30;5.45;;;15.00;86.30;;;;;;5047652;28;20271;-78
2021/07/02 04:44:26;;;;;;;7.38;5.65;;;15.00;85.50;;;;;;5047030;28;20204;-78
2021/07/02 04:46:53;;;;;;;7.78;5.03;;;15.10;84.90;;;;;;5049466;28;20211;-79
2021/07/02 04:49:21;;;;;;;6.43;5.75;;;15.30;83.50;;;;;;5048725;28;20214;-79
2021/07/02 04:51:48;;;;;;;6.13;5.53;;;15.30;83.00;;;;;;5047359;28;20269;-78
2021/07/02 04:54:16;;;;;;;6.85;5.50;;;15.60;82.30;;;;;;5049351;28;20249;-78
2021/07/02 04:56:46;;;;;;;8.50;5.07;;;16.10;78.70;;;;;;5050951;28;20207;-79
2021/07/02 04:59:13;;;;;;;8.87;5.83;;;16.80;73.80;;;;;;5050433;28;20442;-79
2021/07/02 05:01:40;;;;;;;7.63;5.53;;;17.10;68.40;;;;;;5039756;28;20455;-79
2021/07/02 05:04:07;;;;;;;6.60;5.90;;;16.90;67.80;;;;;;5039935;28;20216;-78
2021/07/02 05:06:37;;;;;;;6.87;5.57;;;16.90;69.40;;;;;;5042323;28;20569;-79
2021/07/02 05:09:05;;;;;;;6.30;5.70;;;17.30;69.80;;;;;;5040580;28;20489;-80
2021/07/02 05:11:34;;;;;;;9.10;5.07;;;17.80;65.10;;;;;;5043538;28;20460;-78
2021/07/02 05:14:03;;;;;;;6.20;5.47;;;18.20;63.50;;;;;;5044623;28;20524;-79
2021/07/02 05:16:29;;;;;;;6.60;5.30;;;18.90;60.10;;;;;;5042358;28;20479;-80
2021/07/02 05:18:56;;;;;;;7.20;5.20;;;19.70;56.30;;;;;;5041496;28;20475;-79
2021/07/02 05:21:23;;;;;;;5.40;4.90;;;19.80;54.00;;;;;;5040932;28;20487;-80
2021/07/02 05:23:51;;;;;;;6.47;5.17;;;19.70;55.30;;;;;;5040350;28;20457;-80
2021/07/02 05:26:19;;;;;;;6.57;5.47;;;20.00;54.20;;;;;;5044058;28;20457;-80
2021/07/02 05:28:45;;;;;;;6.07;5.00;;;20.40;53.60;;;;;;5041362;28;20524;-80
2021/07/02 05:31:14;;;;;;;6.57;5.10;;;20.80;50.20;;;;;;5041784;28;20553;-80
2021/07/02 05:33:41;;;;;;;7.87;5.13;;;21.10;50.60;;;;;;5041215;28;20489;-80
2021/07/02 05:36:08;;;;;;;5.70;5.20;;;21.50;48.60;;;;;;5042008;28;20488;-79
2021/07/02 05:38:35;;;;;;;6.10;4.87;;;21.70;47.50;;;;;;5042871;28;20547;-80
2021/07/02 05:41:04;;;;;;;7.03;5.27;;;21.70;46.80;;;;;;5045666;28;20454;-79
2021/07/02 05:43:30;;;;;;;9.73;5.43;;;21.30;48.00;;;;;;5054067;28;20445;-80
2021/07/02 05:45:57;;;;;;;6.70;5.37;;;20.80;49.60;;;;;;5055012;28;20516;-81
2021/07/02 05:48:24;;;;;;;10.50;4.97;;;21.00;49.80;;;;;;5046985;28;20494;-79
2021/07/02 05:50:51;;;;;;;6.57;5.10;;;21.50;47.90;;;;;;5040668;28;20452;-80
2021/07/02 05:53:18;;;;;;;7.07;5.60;;;21.70;46.90;;;;;;5047311;28;20450;-81
2021/07/02 05:55:45;;;;;;;6.23;5.63;;;22.00;45.80;;;;;;5049579;28;21040;-78
2021/07/02 05:58:13;;;;;;;6.77;5.87;;;22.10;45.10;;;;;;5047898;28;20489;-80
2021/07/02 06:00:41;;;;;;;5.27;4.77;;;22.30;44.60;;;;;;5054340;28;20451;-79
2021/07/02 06:03:07;;;;;;;6.57;5.63;;;22.50;44.20;;;;;;5055437;28;20445;-80
2021/07/02 06:05:35;;;;;;;7.50;5.30;;;22.20;44.60;;;;;;5048022;28;20478;-79
2021/07/02 06:08:02;;;;;;;5.70;5.07;;;22.00;45.50;;;;;;5041694;28;20480;-79
2021/07/02 06:10:30;;;;;;;6.50;5.23;;;22.40;44.30;;;;;;5040196;28;20542;-79
2021/07/02 06:12:58;;;;;;;10.00;6.40;;;23.00;43.20;;;;;;5044161;28;20474;-79
2021/07/02 06:15:26;;;;;;;7.60;6.00;;;22.70;42.10;;;;;;5048002;28;20732;-79
2021/07/02 06:17:54;;;;;;;6.60;5.47;;;21.50;45.40;;;;;;5045232;28;20539;-79
2021/07/02 06:20:24;;;;;;;8.63;6.60;;;21.00;47.30;;;;;;5045929;28;20519;-79
2021/07/02 06:22:52;;;;;;;6.63;5.93;;;21.10;47.50;;;;;;5046531;28;20725;-80
2021/07/02 06:25:19;;;;;;;8.10;6.17;;;21.30;46.90;;;;;;5047397;28;20461;-80
2021/07/02 06:27:46;;;;;;;9.60;5.30;;;21.20;47.50;;;;;;5047494;28;20482;-79
2021/07/02 06:30:15;;;;;;;6.63;5.80;;;20.90;47.50;;;;;;5046039;28;20433;-79
2021/07/02 06:32:44;;;;;;;6.60;5.90;;;20.40;49.20;;;;;;5047041;28;20438;-79
2021/07/02 06:35:12;;;;;;;6.80;6.07;;;20.00;49.90;;;;;;5049244;28;20485;-80
2021/07/02 06:37:39;;;;;;;10.97;6.20;;;19.60;51.10;;;;;;5046651;28;20498;-79
2021/07/02 06:40:07;;;;;;;7.60;6.37;;;19.40;52.70;;;;;;5044048;28;20466;-79
2021/07/02 06:42:34;;;;;;;9.30;5.43;;;19.80;51.60;;;;;;5043790;28;20430;-81
2021/07/02 06:45:01;;;;;;;7.33;6.63;;;20.30;50.30;;;;;;5046570;28;20820;-80
2021/07/02 06:47:28;;;;;;;6.30;5.73;;;21.00;49.00;;;;;;5043990;28;20467;-81
2021/07/02 06:49:56;;;;;;;7.60;6.10;;;21.30;47.10;;;;;;5046105;28;20446;-79
2021/07/02 06:52:23;;;;;;;5.87;5.20;;;21.60;46.20;;;;;;5053197;28;20751;-79
2021/07/02 06:54:50;;;;;;;6.67;5.97;;;21.60;45.80;;;;;;5051897;28;20491;-80
2021/07/02 06:57:17;;;;;;;6.03;5.43;;;21.40;46.20;;;;;;5049392;28;20481;-79
2021/07/02 06:59:45;;;;;;;6.87;6.10;;;21.50;47.10;;;;;;5049736;28;20962;-79
2021/07/02 07:02:12;;;;;;;7.13;6.43;;;22.20;45.40;;;;;;5051545;28;20438;-79
2021/07/02 07:04:40;;;;;;;8.60;6.27;;;22.10;44.60;;;;;;5050969;28;20417;-78
2021/07/02 07:07:09;;;;;;;10.07;7.23;;;21.50;45.50;;;;;;5053535;28;20460;-79
2021/07/02 07:09:38;;;;;;;13.53;10.17;;;21.10;47.00;;;;;;5054639;28;20454;-79
2021/07/02 07:12:06;;;;;;;10.00;8.17;;;21.30;46.30;;;;;;5050694;28;20763;-79
2021/07/02 07:14:33;;;;;;;13.27;6.30;;;21.40;46.00;;;;;;5056229;28;20459;-79
2021/07/02 07:17:01;;;;;;;6.90;6.20;;;21.30;46.50;;;;;;5047437;28;20472;-82
2021/07/02 07:19:29;;;;;;;6.63;6.00;;;21.10;46.50;;;;;;5056394;28;20434;-79
2021/07/02 07:21:57;;;;;;;8.30;5.87;;;21.00;46.90;;;;;;5055070;28;20445;-80
2021/07/02 07:24:25;;;;;;;8.13;6.70;;;20.80;47.10;;;;;;5052891;28;20462;-80
2021/07/02 07:26:52;;;;;;;8.50;6.37;;;20.40;48.20;;;;;;5042028;28;20516;-80
2021/07/02 07:29:19;;;;;;;8.90;6.00;;;20.10;49.00;;;;;;5043882;28;20457;-80
2021/07/02 07:31:46;;;;;;;9.00;5.90;;;20.00;48.90;;;;;;5047907;28;20456;-79
2021/07/02 07:34:21;;;;;;;7.43;6.40;;;20.00;48.90;;;;;;5055563;28;20459;-79
2021/07/02 07:36:52;;;;;;;6.73;6.07;;;20.10;49.00;;;;;;5048473;28;20805;-80
2021/07/02 07:39:19;;;;;;;8.40;6.63;;;20.10;49.00;;;;;;5041832;28;21030;-79
2021/07/02 07:41:47;;;;;;;14.67;6.80;;;19.80;48.70;;;;;;5042186;28;20504;-80
2021/07/02 07:44:15;;;;;;;9.57;6.87;;;19.70;50.00;;;;;;5042216;28;20465;-80
2021/07/02 07:46:42;;;;;;;7.40;6.37;;;19.80;48.70;;;;;;5043476;28;20453;-80
2021/07/02 07:49:09;;;;;;;6.90;5.97;;;19.80;48.70;;;;;;5042362;28;20434;-80
2021/07/02 07:51:42;;;;;;;7.20;6.50;;;19.80;49.20;;;;;;5043361;28;20472;-79
2021/07/02 07:54:09;;;;;;;8.07;6.63;;;19.90;48.80;;;;;;5044646;28;20456;-80
2021/07/02 07:56:36;;;;;;;8.30;6.83;;;19.90;50.10;;;;;;5049871;28;20476;-79
2021/07/02 07:59:05;;;;;;;7.67;6.83;;;19.90;49.20;;;;;;5047807;28;20820;-80
2021/07/02 08:01:31;;;;;;;7.63;6.10;;;19.90;49.80;;;;;;5045192;28;20454;-79
2021/07/02 08:03:58;;;;;;;7.60;6.30;;;20.00;49.50;;;;;;5050042;28;20468;-78
2021/07/02 08:06:25;;;;;;;6.63;5.90;;;20.10;49.00;;;;;;5047336;28;20489;-79
2021/07/02 08:08:53;;;;;;;9.00;6.50;;;20.00;48.90;;;;;;5039486;28;20527;-79
2021/07/02 08:11:20;;;;;;;8.33;6.90;;;20.00;47.30;;;;;;5040765;28;20528;-79
2021/07/02 08:13:47;;;;;;;9.03;6.80;;;20.20;46.40;;;;;;5040716;28;20476;-80
2021/07/02 08:16:15;;;;;;;6.90;5.80;;;20.00;46.70;;;;;;5041291;28;20489;-80
2021/07/02 08:18:42;;;;;;;6.43;5.70;;;19.90;47.00;;;;;;5039925;28;20508;-80
2021/07/02 08:21:09;;;;;;;6.60;5.90;;;20.00;44.60;;;;;;5040107;28;20461;-80
2021/07/02 08:23:36;;;;;;;7.17;6.13;;;20.10;44.70;;;;;;5041083;28;20547;-80
2021/07/02 08:26:03;;;;;;;6.63;6.03;;;20.20;45.50;;;;;;5043283;28;20805;-80
2021/07/02 08:31:15;;;;;;;7.00;5.40;;;20.10;42.00;;;;;;5040619;28;20443;-80
2021/07/02 08:33:42;;;;;;;5.87;5.30;;;20.20;42.50;;;;;;5040431;28;20443;-80
2021/07/02 08:36:09;;;;;;;8.47;5.80;;;20.40;42.00;;;;;;5040530;28;20911;-80
2021/07/02 08:38:36;;;;;;;6.67;5.67;;;20.50;42.10;;;;;;5042929;28;20477;-80
2021/07/02 08:41:04;;;;;;;6.87;6.17;;;20.60;42.60;;;;;;5043757;28;20483;-80
2021/07/02 08:43:30;;;;;;;7.10;5.70;;;20.60;42.10;;;;;;5044488;28;20822;-79
2021/07/02 08:45:58;;;;;;;7.23;6.53;;;20.60;42.10;;;;;;5043780;28;20885;-80
2021/07/02 08:48:27;;;;;;;6.73;5.73;;;20.70;41.40;;;;;;5043156;28;20547;-79
2021/07/02 08:50:55;;;;;;;7.20;6.37;;;20.70;41.30;;;;;;5043694;28;20491;-80
2021/07/02 08:53:22;;;;;;;8.30;6.40;;;20.80;42.00;;;;;;5055167;28;20427;-79
2021/07/02 08:55:49;;;;;;;6.23;5.17;;;21.10;39.80;;;;;;5057597;28;20478;-79
2021/07/02 08:58:16;;;;;;;7.70;6.33;;;21.40;40.10;;;;;;5057817;28;20480;-79
2021/07/02 09:00:44;;;;;;;7.77;6.20;;;21.30;40.00;;;;;;5046138;28;20487;-80
2021/07/02 09:03:32;;;;;;;7.60;6.37;;;21.00;40.80;;;;;;5044602;28;20515;-79
2021/07/02 09:06:14;;;;;;;12.40;6.33;;;21.00;39.70;;;;;;5046383;28;20520;-79
2021/07/02 09:08:57;;;;;;;7.50;6.27;;;21.00;39.70;;;;;;5043638;28;20580;-79
2021/07/02 09:11:26;;;;;;;6.27;5.67;;;20.90;37.20;;;;;;5042799;28;20867;-78
2021/07/02 09:13:54;;;;;;;9.50;6.23;;;20.90;36.20;;;;;;5043067;28;20457;-78
2021/07/02 09:16:22;;;;;;;6.00;5.40;;;21.20;36.40;;;;;;5045108;28;20497;-80
2021/07/02 09:18:51;;;;;;;7.80;5.77;;;21.30;35.80;;;;;;5042644;28;20840;-79
2021/07/02 09:21:25;;;;;;;6.80;5.53;;;21.70;34.10;;;;;;5047058;28;20438;-80
2021/07/02 09:23:52;;;;;;;7.20;6.50;;;22.10;33.60;;;;;;5045464;28;20464;-80
2021/07/02 09:26:34;;;;;;;6.80;6.20;;;22.30;33.40;;;;;;5042682;28;20839;-79
2021/07/02 09:29:19;;;;;;;6.40;5.80;;;22.60;33.80;;;;;;5042265;28;20530;-79
2021/07/02 09:31:57;;;;;;;7.93;5.73;;;22.70;33.70;;;;;;5046465;28;20455;-79
2021/07/02 09:34:49;;;;;;;6.50;5.90;;;22.80;33.80;;;;;;5043009;28;20496;-80
2021/07/02 09:37:21;;;;;;;6.30;5.70;;;22.80;33.40;;;;;;5042440;28;20581;-79
2021/07/02 09:39:48;;;;;;;6.97;6.00;;;22.80;33.80;;;;;;5042089;28;20460;-79
2021/07/02 09:42:24;;;;;;;8.10;6.27;;;22.40;35.40;;;;;;5051559;28;20461;-80
2021/07/02 09:45:06;;;;;;;7.60;6.80;;;22.70;33.80;;;;;;5044950;28;20464;-79
2021/07/02 09:47:34;;;;;;;6.80;6.10;;;22.90;31.90;;;;;;5041534;28;20472;-80
2021/07/02 09:50:21;;;;;;;6.10;5.50;;;22.90;32.40;;;;;;5040620;28;20982;-80
2021/07/02 09:52:50;;;;;;;8.73;6.87;;;23.20;31.40;;;;;;5042446;28;20588;-80
2021/07/02 09:55:18;;;;;;;7.40;5.43;;;23.20;32.80;;;;;;5041507;28;20452;-80
2021/07/02 09:57:45;;;;;;;9.03;5.73;;;23.00;31.30;;;;;;5045178;28;20928;-80
2021/07/02 10:00:15;;;;;;;7.43;5.60;;;23.20;31.40;;;;;;5044099;28;20487;-78
2021/07/02 10:02:53;;;;;;;8.67;6.67;;;23.60;32.60;;;;;;5044827;28;20467;-80
2021/07/02 10:05:22;;;;;;;7.97;5.10;;;24.10;32.00;;;;;;5044891;28;20460;-79
2021/07/02 10:08:04;;;;;;;8.53;6.23;;;23.80;32.00;;;;;;5046618;28;20478;-79
2021/07/02 10:10:35;;;;;;;6.83;5.73;;;23.90;32.10;;;;;;5054379;28;20467;-79
2021/07/02 10:13:03;;;;;;;6.83;5.80;;;24.10;32.00;;;;;;5029153;28;20436;-78
2021/07/02 10:15:31;;;;;;;5.20;4.70;;;24.50;31.60;;;;;;5037801;28;20497;-79
2021/07/02 10:17:59;;;;;;;6.77;6.13;;;24.30;30.00;;;;;;5032298;28;20478;-78
2021/07/02 10:20:29;;;;;;;13.10;6.07;;;24.20;30.50;;;;;;5029562;28;20429;-78
2021/07/02 10:22:58;;;;;;;7.63;6.83;;;23.80;29.70;;;;;;5024146;28;20540;-78
2021/07/02 10:25:27;;;;;;;6.53;5.83;;;23.60;30.00;;;;;;5022230;28;20787;-78
2021/07/02 10:27:54;;;;;;;5.90;5.40;;;23.50;29.00;;;;;;5018762;28;20515;-79
2021/07/02 10:30:22;;;;;;;6.40;5.80;;;23.30;29.50;;;;;;5018554;28;20966;-78
2021/07/02 10:32:51;;;;;;;6.87;6.13;;;23.60;30.40;;;;;;5022202;28;20434;-77
2021/07/02 10:35:18;;;;;;;9.00;6.33;;;23.80;30.60;;;;;;5028299;28;20477;-77
2021/07/02 10:37:54;;;;;;;8.83;6.43;;;23.90;32.10;;;;;;5027399;28;20485;-78
2021/07/02 10:40:39;;;;;;;7.53;5.50;;;24.00;32.20;;;;;;5028634;28;20421;-79
2021/07/02 10:43:12;;;;;;;6.50;5.70;;;24.10;32.30;;;;;;5028209;28;20437;-78
2021/07/02 10:46:00;;;;;;;6.73;6.10;;;24.30;32.50;;;;;;5025520;28;20496;-78
2021/07/02 10:48:48;;;;;;;6.70;6.10;;;24.40;31.50;;;;;;5020500;28;20491;-79
2021/07/02 10:51:43;;;;;;;6.60;6.00;;;24.20;31.70;;;;;;5016112;28;20453;-79
2021/07/02 10:54:30;;;;;;;7.93;5.73;;;23.90;32.10;;;;;;5018654;28;20465;-79
2021/07/02 10:57:14;;;;;;;7.33;6.27;;;23.80;30.50;;;;;;5008928;28;20528;-79
2021/07/02 11:00:15;;;;;;;6.10;5.50;;;23.20;31.40;;;;;;5020009;28;20489;-79
2021/07/02 11:02:46;;;;;;;5.53;5.00;;;23.10;31.40;;;;;;5025083;28;20797;-79
2021/07/02 11:05:37;;;;;;;7.33;6.63;;;23.30;31.60;;;;;;5024307;28;20461;-79
2021/07/02 11:08:04;;;;;;;8.60;6.20;;;23.60;31.80;;;;;;5010265;28;20480;-79
2021/07/02 11:10:55;;;;;;;6.80;6.10;;;23.80;32.00;;;;;;5023466;28;20461;-79
2021/07/02 11:13:22;;;;;;;6.03;5.50;;;23.50;31.70;;;;;;5018967;28;20464;-78
2021/07/02 11:16:07;;;;;;;6.10;5.50;;;23.50;30.20;;;;;;5022617;28;20551;-79
2021/07/02 11:18:42;;;;;;;8.07;5.87;;;23.70;31.50;;;;;;5019197;28;20553;-79
2021/07/02 11:21:17;;;;;;;5.90;5.30;;;23.50;31.70;;;;;;5019470;28;20460;-79
2021/07/02 11:23:44;;;;;;;7.97;6.30;;;23.60;31.80;;;;;;5021683;28;20468;-79
2021/07/02 11:26:32;;;;;;;7.20;5.90;;;23.90;32.10;;;;;;5018106;28;20507;-79
2021/07/02 11:29:01;;;;;;;6.67;5.53;;;24.20;30.20;;;;;;5017091;28;20460;-79
2021/07/02 11:31:36;;;;;;;7.27;5.87;;;24.00;30.80;;;;;;5018318;28;20454;-80
2021/07/02 11:34:20;;;;;;;7.90;6.17;;;24.00;31.00;;;;;;5018004;28;20460;-79
2021/07/02 11:37:09;;;;;;;6.37;5.77;;;23.80;32.00;;;;;;5020161;28;21044;-78
2021/07/02 11:39:37;;;;;;;6.80;6.20;;;24.00;30.20;;;;;;5018465;28;20430;-78
2021/07/02 11:42:09;;;;;;;8.73;6.77;;;24.40;30.10;;;;;;5017092;28;20458;-79
2021/07/02 11:44:38;;;;;;;7.90;6.17;;;24.70;30.00;;;;;;5015951;28;20485;-78
2021/07/02 11:47:05;;;;;;;7.60;6.80;;;24.60;30.50;;;;;;5016143;28;20477;-79
2021/07/02 11:49:32;;;;;;;6.07;5.57;;;24.60;30.70;;;;;;5014664;28;20461;-79
2021/07/02 11:51:59;;;;;;;10.27;6.67;;;24.70;30.60;;;;;;5016183;28;20481;-79
2021/07/02 11:54:26;;;;;;;6.47;5.33;;;25.00;30.40;;;;;;5016551;28;20489;-79
2021/07/02 11:56:54;;;;;;;7.20;6.50;;;25.00;29.40;;;;;;5016140;28;20490;-80
2021/07/02 11:59:21;;;;;;;6.17;5.57;;;25.30;29.20;;;;;;5016010;28;20992;-80
2021/07/02 12:01:54;;;;;;;6.37;5.77;;;25.40;29.20;;;;;;5016059;28;20458;-79
2021/07/02 12:04:22;;;;;;;6.53;5.90;;;25.40;28.90;;;;;;5017233;28;20473;-80
2021/07/02 12:06:51;;;;;;;7.50;5.90;;;25.30;29.30;;;;;;5020061;28;20453;-79
2021/07/02 12:09:19;;;;;;;7.20;6.60;;;25.40;29.00;;;;;;5016433;28;20458;-78
2021/07/02 12:11:51;;;;;;;7.00;6.03;;;25.80;28.60;;;;;;5015759;28;20484;-79
2021/07/02 12:14:22;;;;;;;6.43;5.83;;;26.00;28.70;;;;;;5021157;28;20522;-79
2021/07/02 12:16:51;;;;;;;6.63;5.93;;;25.80;28.60;;;;;;5021076;28;20503;-79
2021/07/02 12:19:20;;;;;;;5.90;5.40;;;25.30;29.50;;;;;;5020470;28;20939;-79
2021/07/02 12:21:52;;;;;;;6.27;5.67;;;24.90;30.20;;;;;;5022392;28;20432;-79
2021/07/02 12:24:20;;;;;;;5.60;5.10;;;24.90;29.60;;;;;;5021019;28;20432;-79
2021/07/02 12:26:52;;;;;;;6.77;6.00;;;25.50;29.30;;;;;;5018286;28;20458;-78
2021/07/02 12:29:19;;;;;;;7.50;6.43;;;25.60;29.30;;;;;;5018805;28;20440;-78
2021/07/02 12:31:49;;;;;;;5.83;5.13;;;25.40;28.60;;;;;;5023506;28;20496;-80
2021/07/02 12:34:19;;;;;;;6.50;6.00;;;25.20;29.00;;;;;;5021815;28;20472;-79
2021/07/02 12:36:56;;;;;;;6.87;6.27;;;25.10;28.20;;;;;;5024192;28;20613;-78
2021/07/02 12:39:26;;;;;;;5.97;5.40;;;24.60;29.10;;;;;;5024248;28;20507;-78
2021/07/02 12:41:53;;;;;;;5.77;5.27;;;24.40;29.20;;;;;;5021517;28;20465;-78
2021/07/02 12:44:22;;;;;;;5.73;5.23;;;24.30;29.60;;;;;;5020830;28;20469;-79
2021/07/02 12:46:50;;;;;;;5.97;5.40;;;24.60;29.70;;;;;;5018997;28;20454;-79
2021/07/02 12:49:33;;;;;;;6.67;5.80;;;24.90;29.80;;;;;;5025260;28;20418;-79
2021/07/02 12:54:55;;;;;;;6.63;6.03;;;25.20;29.20;;;;;;5025502;28;20441;-78
2021/07/02 12:57:33;;;;;;;9.03;6.27;;;24.90;29.00;;;;;;5026976;28;20588;-79
2021/07/02 13:00:02;;;;;;;6.53;5.93;;;24.20;29.60;;;;;;5021819;28;20492;-79
2021/07/02 13:02:37;;;;;;;6.07;5.47;;;23.90;30.40;;;;;;5024899;28;20464;-78